Portada
METAR-TAF:

METAR-TAF

Aeroports :

Djibouti, Djibouti

latitud: 11-33N, longitud: 043-10E, altitud: 49 m

Observació

L'informe es va fer fa 1 hora i 12 minuts, a les 08:00 UTC
Vent 22 kt del Oest
Temperatura 39°C
Humitat 40%
Pressió 1009 hPa
Visibilitat: 1000 m
Cel clar
sorra

METAR: HDAM 240800Z 27022KT 1000 SA SKC 39/23 Q1009

Hora: 12:12 (09:12 UTC)

Pronòstic

L'informe es va fer fa 4 hores i 12 minuts, a les 05:00 UTC
Pronòstic vàlid del 24 a les 06 UTC al 25 a les 06 UTC
Vent 10 kt del Est amb ràfegues de 15 kt
Visibilitat 10 km o més
Escasses núvols a una alçada de 13300 ft
Evolucionant progressivament
l' 24 a les 15 UTC al 24 a les 18 UTC
Vent 5 kt amb direcció variable
Escasses núvols a una alçada de 3000 ft, Cumulonimbus.
Evolucionant progressivament
l' 25 a les 00 UTC al 25 a les 06 UTC
Vent kt del Nord
Núvols disperses a una alçada de 13300 ft

TAF: HDAM 240500Z 2406/2506 09010G15KT 9999 FEW133 BECMG 2415/2418 VRB05KT FEW030CB BECMG 2500/2506 00000KT SCT133

Observacions i pronòstics meteorològics de més de 4000 aeroports (METAR i TAF).

Les estacions disponibles són els punts grocs i vermells al mapa.

Posi el ratolí al punt desitjat per veure el nom de l'estació.

Feu clic per veure les observacions i els pronòstics meteorològics.

Per canviar el mapa: feu clic els botons verds amb una creu de color negre per apropar; al botó verd amb un guió per allunyar la imatge; o en les fletxes verdes per a mapes adjacents.


METAR-TAF: